AUR601Y EGKK-EGJB
Flight info
| Callsign | AUR601Y |
|---|---|
| Flight time | 0h 38m |
| Altitude | 12000 |
| Route | NOVMA L620 SAM N63 LELNA |
| Aircraft | AT76/M-SDFGIRY/S |
Departure
| Time | 2026-05-04 07:49 |
|---|---|
| Airport | London Gatwick Airport (EGKK) |
Arrival
| Time | 2026-05-04 08:27 |
|---|---|
| Airport | Guernsey Airport (EGJB) |
| Time | Latitude | Longitude | Altitude | Speed | Heading |
|---|---|---|---|---|---|
| 2026-05-04 07:05 | 51.15405 | -0.16409 | 201 ft | 0 kts | 77° |
| 2026-05-04 07:38 | 51.15404 | -0.16409 | 201 ft | 1 kts | 77° |
| 2026-05-04 07:38 | 51.15398 | -0.16444 | 210 ft | 4 kts | 59° |
| 2026-05-04 07:38 | 51.15380 | -0.16475 | 208 ft | 4 kts | 27° |
| 2026-05-04 07:39 | 51.15356 | -0.16486 | 203 ft | 4 kts | 355° |
| 2026-05-04 07:39 | 51.15346 | -0.16485 | 202 ft | 0 kts | 347° |
| 2026-05-04 07:42 | 51.15352 | -0.16487 | 201 ft | 2 kts | 345° |
| 2026-05-04 07:42 | 51.15365 | -0.16507 | 209 ft | 3 kts | 296° |
| 2026-05-04 07:42 | 51.15365 | -0.16542 | 206 ft | 4 kts | 258° |
| 2026-05-04 07:42 | 51.15358 | -0.16591 | 206 ft | 5 kts | 257° |
| 2026-05-04 07:43 | 51.15349 | -0.16651 | 201 ft | 6 kts | 258° |
| 2026-05-04 07:43 | 51.15320 | -0.16681 | 204 ft | 6 kts | 172° |
| 2026-05-04 07:43 | 51.15266 | -0.16662 | 205 ft | 8 kts | 168° |
| 2026-05-04 07:43 | 51.15237 | -0.16652 | 202 ft | 1 kts | 168° |
| 2026-05-04 07:45 | 51.15231 | -0.16650 | 202 ft | 3 kts | 168° |
| 2026-05-04 07:46 | 51.15193 | -0.16637 | 205 ft | 8 kts | 168° |
| 2026-05-04 07:46 | 51.15143 | -0.16665 | 211 ft | 8 kts | 236° |
| 2026-05-04 07:46 | 51.15135 | -0.16709 | 204 ft | 0 kts | 258° |
| 2026-05-04 07:47 | 51.15135 | -0.16715 | 203 ft | 2 kts | 258° |
| 2026-05-04 07:47 | 51.15102 | -0.16955 | 203 ft | 55 kts | 258° |
| 2026-05-04 07:47 | 51.14974 | -0.17883 | 207 ft | 114 kts | 258° |
| 2026-05-04 07:49 | 51.13364 | -0.29076 | 2754 ft | 180 kts | 259° |
| 2026-05-04 07:49 | 51.13099 | -0.31032 | 3176 ft | 181 kts | 259° |
| 2026-05-04 07:49 | 51.12838 | -0.32983 | 3625 ft | 180 kts | 258° |
| 2026-05-04 07:50 | 51.12574 | -0.34934 | 4066 ft | 180 kts | 258° |
| 2026-05-04 07:50 | 51.12312 | -0.36884 | 4504 ft | 181 kts | 258° |
| 2026-05-04 07:50 | 51.12048 | -0.38841 | 4940 ft | 181 kts | 257° |
| 2026-05-04 07:50 | 51.11785 | -0.40805 | 5340 ft | 182 kts | 257° |
| 2026-05-04 07:51 | 51.11521 | -0.42778 | 5749 ft | 183 kts | 257° |
| 2026-05-04 07:51 | 51.11101 | -0.44675 | 6146 ft | 182 kts | 243° |
| 2026-05-04 07:51 | 51.10510 | -0.46470 | 6542 ft | 183 kts | 240° |
| 2026-05-04 07:51 | 51.09899 | -0.48246 | 6918 ft | 184 kts | 240° |
| 2026-05-04 07:52 | 51.09290 | -0.50034 | 7300 ft | 184 kts | 241° |
| 2026-05-04 07:52 | 51.08702 | -0.51844 | 7676 ft | 185 kts | 242° |
| 2026-05-04 07:52 | 51.08125 | -0.53670 | 8057 ft | 185 kts | 242° |
| 2026-05-04 07:52 | 51.07552 | -0.55500 | 8431 ft | 185 kts | 242° |
| 2026-05-04 07:53 | 51.06979 | -0.57334 | 8806 ft | 186 kts | 243° |
| 2026-05-04 07:54 | 51.01659 | -0.68735 | 11034 ft | 189 kts | 222° |
| 2026-05-04 07:55 | 51.00676 | -0.70134 | 11315 ft | 190 kts | 221° |
| 2026-05-04 07:55 | 50.99804 | -0.71368 | 11583 ft | 191 kts | 221° |
| 2026-05-04 07:55 | 50.98810 | -0.72773 | 11851 ft | 194 kts | 221° |
| 2026-05-04 07:55 | 50.97773 | -0.74238 | 11937 ft | 205 kts | 221° |
| 2026-05-04 07:56 | 50.96676 | -0.75786 | 11970 ft | 217 kts | 221° |
| 2026-05-04 07:56 | 50.95522 | -0.77414 | 11987 ft | 227 kts | 221° |
| 2026-05-04 07:56 | 50.94735 | -0.78525 | 11988 ft | 232 kts | 221° |
| 2026-05-04 07:56 | 50.93513 | -0.80245 | 12001 ft | 238 kts | 221° |
| 2026-05-04 07:57 | 50.92261 | -0.82004 | 12003 ft | 243 kts | 221° |
| 2026-05-04 07:57 | 50.90994 | -0.83785 | 12003 ft | 246 kts | 221° |
| 2026-05-04 07:57 | 50.89705 | -0.85597 | 12000 ft | 249 kts | 221° |
| 2026-05-04 07:57 | 50.88403 | -0.87425 | 11997 ft | 251 kts | 221° |
| 2026-05-04 07:58 | 50.87096 | -0.89262 | 11997 ft | 252 kts | 221° |
| 2026-05-04 07:58 | 50.85776 | -0.91113 | 11998 ft | 253 kts | 221° |
| 2026-05-04 07:58 | 50.84453 | -0.92963 | 11998 ft | 254 kts | 221° |
| 2026-05-04 07:58 | 50.83130 | -0.94820 | 12011 ft | 255 kts | 221° |
| 2026-05-04 07:59 | 50.81800 | -0.96675 | 12009 ft | 255 kts | 220° |
| 2026-05-04 07:59 | 50.80470 | -0.98535 | 12008 ft | 255 kts | 220° |
| 2026-05-04 07:59 | 50.79297 | -1.00176 | 12007 ft | 256 kts | 220° |
| 2026-05-04 07:59 | 50.77963 | -1.02036 | 12006 ft | 256 kts | 220° |
| 2026-05-04 08:00 | 50.76630 | -1.03893 | 12007 ft | 256 kts | 220° |
| 2026-05-04 08:00 | 50.75296 | -1.05753 | 12007 ft | 256 kts | 220° |
| 2026-05-04 08:00 | 50.73962 | -1.07612 | 12007 ft | 256 kts | 220° |
| 2026-05-04 08:02 | 50.64606 | -1.20596 | 12003 ft | 256 kts | 220° |
| 2026-05-04 08:02 | 50.63267 | -1.22452 | 12002 ft | 256 kts | 220° |
| 2026-05-04 08:02 | 50.61927 | -1.24304 | 11999 ft | 256 kts | 220° |
| 2026-05-04 08:03 | 50.60587 | -1.26153 | 12001 ft | 256 kts | 220° |
| 2026-05-04 08:03 | 50.59252 | -1.27998 | 12001 ft | 256 kts | 220° |
| 2026-05-04 08:03 | 50.57925 | -1.29830 | 12003 ft | 256 kts | 220° |
| 2026-05-04 08:03 | 50.56583 | -1.31677 | 12000 ft | 257 kts | 220° |
| 2026-05-04 08:04 | 50.55240 | -1.33529 | 12001 ft | 257 kts | 220° |
| 2026-05-04 08:04 | 50.53896 | -1.35376 | 12001 ft | 257 kts | 220° |
| 2026-05-04 08:04 | 50.52554 | -1.37225 | 12001 ft | 256 kts | 220° |
| 2026-05-04 08:04 | 50.51210 | -1.39067 | 12006 ft | 256 kts | 220° |
| 2026-05-04 08:05 | 50.49867 | -1.40912 | 12010 ft | 257 kts | 219° |
| 2026-05-04 08:05 | 50.48523 | -1.42756 | 12006 ft | 257 kts | 220° |
| 2026-05-04 08:05 | 50.47180 | -1.44599 | 12005 ft | 256 kts | 219° |
| 2026-05-04 08:05 | 50.45835 | -1.46438 | 12005 ft | 256 kts | 220° |
| 2026-05-04 08:06 | 50.44492 | -1.48279 | 12002 ft | 256 kts | 219° |
| 2026-05-04 08:06 | 50.43148 | -1.50115 | 12003 ft | 256 kts | 220° |
| 2026-05-04 08:06 | 50.41805 | -1.51950 | 12003 ft | 256 kts | 219° |
| 2026-05-04 08:06 | 50.40463 | -1.53783 | 12004 ft | 256 kts | 219° |
| 2026-05-04 08:08 | 50.31082 | -1.66552 | 12003 ft | 254 kts | 219° |
| 2026-05-04 08:08 | 50.29749 | -1.68357 | 12004 ft | 253 kts | 219° |
| 2026-05-04 08:10 | 50.19121 | -1.82729 | 12004 ft | 253 kts | 219° |
| 2026-05-04 08:11 | 50.17790 | -1.84527 | 12013 ft | 253 kts | 218° |
| 2026-05-04 08:11 | 50.15126 | -1.88111 | 12009 ft | 253 kts | 218° |
| 2026-05-04 08:11 | 50.13793 | -1.89898 | 12004 ft | 253 kts | 218° |
| 2026-05-04 08:12 | 50.12463 | -1.91687 | 12001 ft | 253 kts | 218° |
| 2026-05-04 08:12 | 50.11133 | -1.93472 | 12005 ft | 252 kts | 218° |
| 2026-05-04 08:12 | 50.09802 | -1.95258 | 12003 ft | 252 kts | 218° |
| 2026-05-04 08:12 | 50.08474 | -1.97041 | 12004 ft | 252 kts | 218° |
| 2026-05-04 08:13 | 50.07143 | -1.98820 | 12007 ft | 252 kts | 218° |
| 2026-05-04 08:13 | 50.05967 | -2.00396 | 12007 ft | 252 kts | 218° |
| 2026-05-04 08:13 | 50.04635 | -2.02175 | 12007 ft | 252 kts | 218° |
| 2026-05-04 08:13 | 50.03306 | -2.03952 | 12007 ft | 252 kts | 218° |
| 2026-05-04 08:14 | 50.01975 | -2.05732 | 12006 ft | 252 kts | 218° |
| 2026-05-04 08:14 | 50.00644 | -2.07506 | 12007 ft | 252 kts | 218° |
| 2026-05-04 08:14 | 49.99478 | -2.09065 | 12007 ft | 252 kts | 218° |
| 2026-05-04 08:16 | 49.89796 | -2.19184 | 10901 ft | 232 kts | 211° |
| 2026-05-04 08:16 | 49.88444 | -2.20552 | 10610 ft | 232 kts | 211° |
| 2026-05-04 08:16 | 49.87095 | -2.21919 | 10317 ft | 232 kts | 211° |
| 2026-05-04 08:17 | 49.85750 | -2.23279 | 10058 ft | 230 kts | 211° |
| 2026-05-04 08:17 | 49.84410 | -2.24637 | 9778 ft | 230 kts | 211° |
| 2026-05-04 08:17 | 49.83075 | -2.25984 | 9473 ft | 229 kts | 211° |
| 2026-05-04 08:17 | 49.81743 | -2.27331 | 9206 ft | 228 kts | 211° |
| 2026-05-04 08:19 | 49.72526 | -2.36625 | 7228 ft | 224 kts | 212° |
| 2026-05-04 08:19 | 49.71220 | -2.37933 | 6954 ft | 223 kts | 212° |
| 2026-05-04 08:20 | 49.69861 | -2.39009 | 6684 ft | 219 kts | 192° |
| 2026-05-04 08:20 | 49.68356 | -2.39161 | 6416 ft | 217 kts | 180° |
| 2026-05-04 08:20 | 49.66865 | -2.39082 | 6122 ft | 218 kts | 178° |
| 2026-05-04 08:20 | 49.65347 | -2.38976 | 5848 ft | 219 kts | 178° |
| 2026-05-04 08:21 | 49.63823 | -2.38888 | 5562 ft | 220 kts | 179° |
| 2026-05-04 08:21 | 49.62293 | -2.38849 | 5280 ft | 221 kts | 180° |
| 2026-05-04 08:21 | 49.60755 | -2.38826 | 5002 ft | 221 kts | 180° |
| 2026-05-04 08:21 | 49.59212 | -2.38809 | 4723 ft | 222 kts | 180° |
| 2026-05-04 08:22 | 49.57665 | -2.38792 | 4432 ft | 223 kts | 180° |
| 2026-05-04 08:22 | 49.56117 | -2.38774 | 4164 ft | 222 kts | 180° |
| 2026-05-04 08:24 | 49.45514 | -2.38832 | 2575 ft | 204 kts | 190° |
| 2026-05-04 08:24 | 49.44341 | -2.39902 | 2538 ft | 198 kts | 233° |
| 2026-05-04 08:24 | 49.43957 | -2.41845 | 2520 ft | 187 kts | 268° |
| 2026-05-04 08:24 | 49.43943 | -2.43792 | 2393 ft | 181 kts | 268° |
| 2026-05-04 08:25 | 49.43897 | -2.45671 | 2149 ft | 173 kts | 267° |
| 2026-05-04 08:25 | 49.43843 | -2.47452 | 1915 ft | 162 kts | 268° |
| 2026-05-04 08:25 | 49.43796 | -2.49153 | 1695 ft | 157 kts | 268° |
| 2026-05-04 08:25 | 49.43758 | -2.50794 | 1482 ft | 151 kts | 268° |
| 2026-05-04 08:26 | 49.43715 | -2.52315 | 1281 ft | 135 kts | 268° |
| 2026-05-04 08:27 | 49.43481 | -2.60771 | 306 ft | 34 kts | 268° |
| 2026-05-04 08:28 | 49.43474 | -2.61048 | 308 ft | 20 kts | 267° |
| 2026-05-04 08:28 | 49.43468 | -2.61234 | 311 ft | 15 kts | 267° |
| 2026-05-04 08:28 | 49.43442 | -2.61354 | 312 ft | 10 kts | 192° |
| 2026-05-04 08:28 | 49.43384 | -2.61295 | 311 ft | 11 kts | 132° |
| 2026-05-04 08:29 | 49.43359 | -2.61178 | 309 ft | 12 kts | 87° |
| 2026-05-04 08:29 | 49.43363 | -2.61049 | 307 ft | 12 kts | 88° |
| 2026-05-04 08:29 | 49.43363 | -2.60921 | 304 ft | 13 kts | 98° |
| 2026-05-04 08:31 | 49.43345 | -2.59848 | 320 ft | 9 kts | 88° |
| 2026-05-04 08:33 | 49.43284 | -2.59744 | 324 ft | 0 kts | 178° |